deformed-offering

Nearby METAR Reports

 

KNUQ - Moffett Nas/Mtn, California, USA
Distance from station: N 9mi, 14km
Updated: Fri, 14-Dec-2018 8:56pm PST
Overcast
Overcast
 Wind from SSE
Wind: SSE 8 mph , 13 km/h
Temperature: 57°F , 14°C
Dew Point: 48°F , 9°C
Humidity: 72%
Barometer: 30.11 inHg , 1019.6 hPa
Clouds: Overcast
Visibility: 10 miles , 16 km
Cloud details: Overcast 7500 ft
2018/12/15 04:56 KNUQ 150456Z 15007KT 10SM OVC075 14/09 A3011 RMK AO2 SLP198 T01440094
KSJC - San Jose, California, USA
Distance from station: NE 9mi, 14km
Updated: Fri, 14-Dec-2018 8:53pm PST
Partly Cloudy
Partly Cloudy
 Wind from SSE
Wind: SSE 7 mph , 11 km/h
Temperature: 55°F , 13°C
Dew Point: 48°F , 9°C
Humidity: 77%
Barometer: 30.11 inHg , 1019.6 hPa
Clouds: Partly Cloudy
Visibility: 10 miles , 16 km
Cloud details: Few Clouds 4200 ft
Partly Cloudy 8000 ft
2018/12/15 04:53 KSJC 150453Z 16006KT 10SM FEW042 SCT080 13/09 A3011 RMK AO2 SLP194 T01330089
 
KRHV - San Jose/Reid, California, USA
Distance from station: ENE 12mi, 19km
Updated: Fri, 14-Dec-2018 8:47pm PST
Mostly Cloudy
Mostly Cloudy
 Wind from S
Wind: S 6 mph , 9 km/h
Temperature: 55°F , 13°C
Dew Point: 48°F , 9°C
Humidity: 77%
Barometer: 30.09 inHg , 1019 hPa
Clouds: Mostly Cloudy
Visibility: 10 miles , 16 km
Cloud details: Few Clouds 4000 ft
Mostly Cloudy 7000 ft
2018/12/15 04:47 KRHV 150447Z 18005KT 10SM FEW040 BKN070 13/09 A3009
KPAO - Palo Alto, California, USA
Distance from station: NNW 14mi, 23km
Updated: Fri, 14-Dec-2018 7:47pm PST
NOT Current
Mostly Cloudy
Mostly Cloudy
 Wind from varies
Wind: varies 5 mph , 7 km/h
Temperature: 57°F , 14°C
Dew Point: 50°F , 10°C
Humidity: 77%
Barometer: 30.12 inHg , 1020 hPa
Clouds: Mostly Cloudy
Visibility: 10 miles , 16 km
Cloud details: Mostly Cloudy 6000 ft
2018/12/15 03:47 KPAO 150347Z VRB04KT 10SM BKN060 14/10 A3012
 
KSQL - San Carlos Airpo, California, USA
Distance from station: NW 21mi, 34km
Updated: Fri, 14-Dec-2018 9:20pm PST
Overcast
Overcast
 Wind from SSE
Wind: SSE 6 mph , 9 km/h
Temperature: 59°F , 15°C
Dew Point: 48°F , 9°C
Humidity: 68%
Barometer: 30.11 inHg , 1019.6 hPa
Clouds: Overcast
Visibility: 10 miles , 16 km
Cloud details: Overcast 5000 ft
2018/12/15 05:20 KSQL 150520Z AUTO 16005KT 10SM OVC050 15/09 A3011 RMK AO2
KE16 - San Martin, California, USA
Distance from station: ESE 27mi, 43km
Updated: Fri, 14-Dec-2018 9:05pm PST

 Wind from SE
Wind: SE 3 mph , 6 km/h
Temperature: 48°F , 9°C
Dew Point: 48°F , 9°C
Humidity: 100%
Barometer: 30.14 inHg , 1020.7 hPa
Visibility: 10 miles , 16 km
2018/12/15 05:05 KE16 150505Z AUTO 13003KT 10SM 09/09 A3014 RMK AO2
 
KWVI - Watsonville, California, USA
Distance from station: SSE 27mi, 44km
Updated: Fri, 14-Dec-2018 8:53pm PST
Clear
Clear
 Wind from NNW
Wind: NNW 5 mph , 7 km/h
Temperature: 54°F , 12°C
Dew Point: 48°F , 9°C
Humidity: 82%
Barometer: 30.12 inHg , 1020 hPa
Clouds: Clear
Visibility: 10 miles , 16 km
2018/12/15 04:53 KWVI 150453Z AUTO 33004KT 10SM CLR 12/09 A3012 RMK AO2 SLP199 T01170094
KHWD - Hayward, California, USA
Distance from station: N 28mi, 44km
Updated: Fri, 14-Dec-2018 8:54pm PST
Overcast
Overcast
 Wind from calm
Wind: Calm
Temperature: 57°F , 14°C
Dew Point: 48°F , 9°C
Humidity: 72%
Barometer: 30.11 inHg , 1019.6 hPa
Clouds: Overcast
Visibility: 10 miles , 16 km
Cloud details: Overcast 7000 ft
2018/12/15 04:54 KHWD 150454Z 00000KT 10SM OVC070 14/09 A3011 RMK AO2 SLP205 T01390094
 
KSFO - San Francisco, California, USA
Distance from station: NW 30mi, 49km
Updated: Fri, 14-Dec-2018 8:56pm PST
Mostly Cloudy
Mostly Cloudy
 Wind from calm
Wind: Calm
Temperature: 61°F , 16°C
Dew Point: 48°F , 9°C
Humidity: 63%
Barometer: 30.10 inHg , 1019.3 hPa
Clouds: Mostly Cloudy
Visibility: 10 miles , 16 km
Cloud details: Few Clouds 2500 ft
Mostly Cloudy 5500 ft
2018/12/15 04:56 KSFO 150456Z 00000KT 10SM FEW025 BKN055 16/09 A3010 RMK AO2 SLP191 T01560089
KHAF - Half Moon Bay, California, USA
Distance from station: WNW 31mi, 50km
Updated: Fri, 14-Dec-2018 9:20pm PST
Haze, Overcast
Haze, Overcast
 Wind from SE
Wind: SE 7 mph , 11 km/h
Temperature: 57°F , 14°C
Dew Point: 52°F , 11°C
Humidity: 82%
Barometer: 30.12 inHg , 1020 hPa
Summary: Haze
Clouds: Overcast
Visibility: 5 miles , 8 km
Cloud details: Mostly Cloudy 1400 ft
Overcast 4000 ft
2018/12/15 05:20 KHAF 150520Z AUTO 14006KT 5SM HZ BKN014 OVC040 14/11 A3012 RMK AO2
 
KOAK - Oakland, California, USA
Distance from station: NNW 31mi, 50km
Updated: Fri, 14-Dec-2018 8:53pm PST
Mostly Cloudy
Mostly Cloudy
 Wind from NNE
Wind: NNE 5 mph , 7 km/h
Temperature: 55°F , 13°C
Dew Point: 52°F , 11°C
Humidity: 88%
Barometer: 30.12 inHg , 1020 hPa
Clouds: Mostly Cloudy
Visibility: 10 miles , 16 km
Cloud details: Few Clouds 2600 ft
Mostly Cloudy 5500 ft
Mostly Cloudy 8000 ft
2018/12/15 04:53 KOAK 150453Z 02004KT 10SM FEW026 BKN055 BKN080 13/11 A3012 RMK AO2 SLP198 T01280106
KLVK - Livermore, California, USA
Distance from station: NNE 31mi, 51km
Updated: Fri, 14-Dec-2018 8:53pm PST
Overcast
Overcast
 Wind from SW
Wind: SW 6 mph , 9 km/h
Temperature: 54°F , 12°C
Dew Point: 48°F , 9°C
Humidity: 82%
Barometer: 30.10 inHg , 1019.3 hPa
Clouds: Overcast
Visibility: 10 miles , 16 km
Cloud details: Overcast 7500 ft
2018/12/15 04:53 KLVK 150453Z 23005KT 10SM OVC075 12/09 A3010 RMK AO2 SLP193 T01220089
 
KCVH - Hollister Muni, California, USA
Distance from station: SE 42mi, 68km
Updated: Fri, 14-Dec-2018 9:15pm PST
Clear
Clear
 Wind from SSE
Wind: SSE 5 mph , 7 km/h
Temperature: 48°F , 9°C
Wind Chill: 46°F , 8°C
Dew Point: 45°F , 7°C
Humidity: 87%
Barometer: 30.13 inHg , 1020.3 hPa
Clouds: Clear
Visibility: 10 miles , 16 km
2018/12/15 05:15 KCVH 150515Z AUTO 16004KT 10SM CLR 09/07 A3013 RMK A01
KSNS - Salinas, California, USA
Distance from station: SSE 48mi, 77km
Updated: Fri, 14-Dec-2018 8:53pm PST
Clear
Clear
 Wind from varies
Wind: varies 3 mph , 6 km/h
Temperature: 52°F , 11°C
Dew Point: 46°F , 8°C
Humidity: 82%
Barometer: 30.11 inHg , 1019.6 hPa
Clouds: Clear
Visibility: 10 miles , 16 km
2018/12/15 04:53 KSNS 150453Z AUTO VRB03KT 10SM CLR 11/08 A3011 RMK AO2 SLP207 T01110083
 
KMRY - Monterey, California, USA
Distance from station: SSE 49mi, 78km
Updated: Fri, 14-Dec-2018 8:54pm PST
Clear
Clear
 Wind from ENE
Wind: ENE 3 mph , 6 km/h
Temperature: 54°F , 12°C
Dew Point: 46°F , 8°C
Humidity: 77%
Barometer: 30.12 inHg , 1020 hPa
Clouds: Clear
Visibility: 10 miles , 16 km
2018/12/15 04:54 KMRY 150454Z 07003KT 10SM CLR 12/08 A3012 RMK AO2 SLP212 T01170078
KCCR - Concord, California, USA
Distance from station: N 50mi, 81km
Updated: Fri, 14-Dec-2018 8:53pm PST
Mostly Cloudy
Mostly Cloudy
 Wind from N
Wind: N 5 mph , 7 km/h
Temperature: 55°F , 13°C
Dew Point: 48°F , 9°C
Humidity: 77%
Barometer: 30.11 inHg , 1019.6 hPa
Clouds: Mostly Cloudy
Visibility: 10 miles , 16 km
Cloud details: Mostly Cloudy 7000 ft
2018/12/15 04:53 KCCR 150453Z 36004KT 10SM BKN070 13/09 A3011 RMK AO2 SLP183 T01280094
deformed-offering